createdAt,value
2019-05-06T00:00:17.700Z,96762.55
2019-05-06T00:02:43.710Z,96766.09
2019-05-06T00:05:09.801Z,96767.38
2019-05-06T00:07:35.663Z,96765.55
2019-05-06T00:10:01.718Z,96757.68
2019-05-06T00:12:27.788Z,96765.30
2019-05-06T00:14:54.167Z,96763.76
2019-05-06T00:17:20.266Z,96760.44
2019-05-06T00:19:46.134Z,96763.58
2019-05-06T00:22:14.057Z,96769.11
2019-05-06T00:24:58.394Z,96766.77
2019-05-06T00:27:34.116Z,96765.05
2019-05-06T00:29:59.737Z,96762.78
2019-05-06T00:32:25.673Z,96773.78
2019-05-06T00:34:51.620Z,96778.33
2019-05-06T00:37:17.467Z,96777.89
2019-05-06T00:39:48.063Z,96774.48
2019-05-06T00:42:21.536Z,96775.03
2019-05-06T00:44:47.456Z,96765.74
2019-05-06T00:47:13.613Z,96776.16
2019-05-06T00:49:39.443Z,96771.27
2019-05-06T00:52:05.386Z,96766.28
2019-05-06T00:54:31.433Z,96778.31
2019-05-06T00:56:57.277Z,96766.67
2019-05-06T00:59:23.831Z,96772.87
2019-05-06T01:01:49.877Z,96782.58
2019-05-06T01:04:15.804Z,96779.68
2019-05-06T01:06:43.894Z,96778.05
2019-05-06T01:09:11.510Z,96780.48
2019-05-06T01:11:37.591Z,96779.16
2019-05-06T01:14:05.521Z,96783.08
2019-05-06T01:16:31.464Z,96784.27
2019-05-06T01:18:57.319Z,96779.78
2019-05-06T01:21:23.803Z,96782.36
2019-05-06T01:23:50.008Z,96786.88
2019-05-06T01:26:16.044Z,96778.22
2019-05-06T01:28:43.555Z,96778.31
2019-05-06T01:31:09.620Z,96781.70
2019-05-06T01:33:35.761Z,96776.20
2019-05-06T01:36:01.780Z,96782.91
2019-05-06T01:38:35.521Z,96782.36
2019-05-06T01:41:19.627Z,96787.27
2019-05-06T01:43:45.781Z,96789.92
2019-05-06T01:46:13.898Z,96789.41
2019-05-06T01:48:48.897Z,96789.27
2019-05-06T01:51:17.014Z,96795.63
2019-05-06T01:53:44.830Z,96791.84
2019-05-06T01:56:10.817Z,96797.41
2019-05-06T01:58:36.756Z,96799.89
2019-05-06T02:01:04.028Z,96797.91
2019-05-06T02:03:29.945Z,96800.28
2019-05-06T02:05:55.806Z,96804.87
2019-05-06T02:08:21.736Z,96800.03
2019-05-06T02:10:47.710Z,96800.42
2019-05-06T02:13:14.228Z,96807.10
2019-05-06T02:15:40.191Z,96805.39
2019-05-06T02:18:06.017Z,96808.77
2019-05-06T02:20:33.969Z,96815.66
2019-05-06T02:23:04.057Z,96817.83
2019-05-06T02:25:31.582Z,96818.58
2019-05-06T02:27:57.427Z,96815.78
2019-05-06T02:30:36.472Z,96818.59
2019-05-06T02:33:04.479Z,96818.02
2019-05-06T02:35:38.237Z,96813.95
2019-05-06T02:38:06.083Z,96816.24
2019-05-06T02:40:33.179Z,96819.78
2019-05-06T02:42:59.295Z,96825.21
2019-05-06T02:45:25.235Z,96831.36
2019-05-06T02:47:59.427Z,96821.99
2019-05-06T02:50:33.968Z,96827.79
2019-05-06T02:53:02.518Z,96832.59
2019-05-06T02:55:27.716Z,96833.68
2019-05-06T02:57:53.989Z,96832.99
2019-05-06T03:00:20.205Z,96835.45
2019-05-06T03:02:48.092Z,96825.69
2019-05-06T03:05:14.119Z,96829.40
2019-05-06T03:07:43.214Z,96825.84
2019-05-06T03:10:12.895Z,96824.69
2019-05-06T03:12:38.983Z,96832.23
2019-05-06T03:15:05.036Z,96830.36
2019-05-06T03:17:32.837Z,96833.66
2019-05-06T03:20:04.008Z,96832.75
2019-05-06T03:22:39.223Z,96833.52
2019-05-06T03:25:13.572Z,96837.45
2019-05-06T03:27:39.618Z,96831.02
2019-05-06T03:30:05.946Z,96831.02
2019-05-06T03:32:37.628Z,96835.08
2019-05-06T03:35:19.333Z,96837.21
2019-05-06T03:37:27.575Z,96836.41
2019-05-06T03:39:53.523Z,96833.21
2019-05-06T03:42:22.775Z,96839.44
2019-05-06T03:44:49.233Z,96838.13
2019-05-06T03:47:17.103Z,96838.70
2019-05-06T03:49:44.859Z,96853.41
2019-05-06T03:52:13.500Z,96845.54
2019-05-06T03:54:38.953Z,96851.27
2019-05-06T03:57:04.902Z,96854.00
2019-05-06T03:59:33.547Z,96861.38
2019-05-06T04:01:59.790Z,96853.23
2019-05-06T04:04:25.751Z,96863.08
2019-05-06T04:06:53.748Z,96856.44
2019-05-06T04:09:19.627Z,96858.70
2019-05-06T04:11:45.881Z,96861.60
2019-05-06T04:14:14.179Z,96860.05
2019-05-06T04:16:44.007Z,96861.27
2019-05-06T04:19:13.059Z,96867.78
2019-05-06T04:21:55.878Z,96856.58
2019-05-06T04:24:29.361Z,96862.48
2019-05-06T04:27:16.916Z,96859.73
2019-05-06T04:29:42.961Z,96865.03
2019-05-06T04:32:08.953Z,96862.52
2019-05-06T04:34:35.110Z,96871.39
2019-05-06T04:37:03.450Z,96881.23
2019-05-06T04:39:29.076Z,96882.83
2019-05-06T04:41:55.062Z,96881.83
2019-05-06T04:44:23.697Z,96880.98
2019-05-06T04:46:48.947Z,96887.07
2019-05-06T04:49:15.356Z,96883.19
2019-05-06T04:51:43.052Z,96893.02
2019-05-06T04:54:09.329Z,96886.91
2019-05-06T04:56:35.172Z,96885.41
2019-05-06T04:59:05.826Z,96889.33
2019-05-06T05:01:29.157Z,96885.94
2019-05-06T05:03:55.219Z,96895.09
2019-05-06T05:06:23.130Z,96887.48
2019-05-06T05:08:49.041Z,96900.59
2019-05-06T05:11:25.684Z,96906.72
2019-05-06T05:14:03.036Z,96899.86
2019-05-06T05:16:33.808Z,96903.47
2019-05-06T05:19:04.329Z,96902.77
2019-05-06T05:21:32.272Z,96900.89
2019-05-06T05:23:58.218Z,96899.16
2019-05-06T05:26:24.158Z,96902.11
2019-05-06T05:28:50.102Z,96907.13
2019-05-06T05:31:16.049Z,96907.65
2019-05-06T05:33:42.379Z,96908.88
2019-05-06T05:36:08.461Z,96907.88
2019-05-06T05:38:34.296Z,96908.99
2019-05-06T05:41:00.257Z,96917.39
2019-05-06T05:43:28.113Z,96916.67
2019-05-06T05:45:54.264Z,96920.33
2019-05-06T05:48:25.098Z,96912.55
2019-05-06T05:50:52.505Z,96918.36
2019-05-06T05:53:18.566Z,96917.62
2019-05-06T05:55:44.800Z,96921.02
2019-05-06T05:58:12.792Z,96917.38
2019-05-06T06:00:38.707Z,96921.28
2019-05-06T06:03:07.086Z,96916.31
2019-05-06T06:05:33.158Z,96920.76
2019-05-06T06:07:59.174Z,96919.73
2019-05-06T06:10:35.860Z,96923.12
2019-05-06T06:13:02.196Z,96925.47
2019-05-06T06:15:35.725Z,96929.41
2019-05-06T06:18:19.860Z,96931.48
2019-05-06T06:20:56.422Z,96934.09
2019-05-06T06:23:29.897Z,96932.00
2019-05-06T06:25:55.854Z,96933.05
2019-05-06T06:28:22.768Z,96936.95
2019-05-06T06:31:05.781Z,96939.84
2019-05-06T06:33:32.971Z,96939.05
2019-05-06T06:36:02.729Z,96936.44
2019-05-06T06:38:47.251Z,96939.30
2019-05-06T06:41:13.234Z,96935.66
2019-05-06T06:43:39.358Z,96933.03
2019-05-06T06:46:09.008Z,96931.20
2019-05-06T06:48:33.048Z,96930.39
2019-05-06T06:50:58.978Z,96935.63
2019-05-06T06:53:24.917Z,96936.89
2019-05-06T06:55:52.775Z,96932.44
2019-05-06T06:58:22.745Z,96940.73
2019-05-06T07:00:53.460Z,96939.59
2019-05-06T07:03:22.321Z,96939.23
2019-05-06T07:05:53.533Z,96936.77
2019-05-06T07:08:32.110Z,96940.62
2019-05-06T07:10:47.461Z,96945.45
2019-05-06T07:13:14.402Z,96947.92
2019-05-06T07:15:42.655Z,96941.36
2019-05-06T07:18:08.507Z,96943.52
2019-05-06T07:20:36.328Z,96941.09
2019-05-06T07:23:04.172Z,96943.81
2019-05-06T07:25:30.113Z,96945.95
2019-05-06T07:27:56.086Z,96945.11
2019-05-06T07:30:24.033Z,96946.23
2019-05-06T07:32:49.985Z,96942.44
2019-05-06T07:35:15.846Z,96952.41
2019-05-06T07:37:42.298Z,96944.09
2019-05-06T07:40:08.953Z,96944.98
2019-05-06T07:42:39.439Z,96946.84
2019-05-06T07:45:21.901Z,96943.19
2019-05-06T07:47:49.638Z,96936.78
2019-05-06T07:50:15.564Z,96941.95
2019-05-06T07:52:43.420Z,96946.47
2019-05-06T07:55:11.896Z,96945.70
2019-05-06T07:57:37.381Z,96949.39
2019-05-06T08:00:05.304Z,96950.46
2019-05-06T08:02:32.060Z,96955.30
2019-05-06T08:04:57.997Z,96952.56
2019-05-06T08:07:23.823Z,96946.04
2019-05-06T08:09:52.774Z,96951.74
2019-05-06T08:12:18.603Z,96952.77
2019-05-06T08:14:44.471Z,96951.50
2019-05-06T08:17:13.299Z,96948.70
2019-05-06T08:19:39.339Z,96948.70
2019-05-06T08:22:12.593Z,96953.77
2019-05-06T08:24:38.649Z,96954.47
2019-05-06T08:27:04.693Z,96956.83
2019-05-06T08:29:32.913Z,96955.17
2019-05-06T08:31:58.500Z,96960.58
2019-05-06T08:34:24.547Z,96960.95
2019-05-06T08:36:53.343Z,96957.56
2019-05-06T08:39:21.926Z,96957.23
2019-05-06T08:41:47.496Z,96964.76
2019-05-06T08:44:13.437Z,96958.19
2019-05-06T08:46:39.296Z,96955.95
2019-05-06T08:49:05.309Z,96957.53
2019-05-06T08:51:48.003Z,96959.13
2019-05-06T08:54:24.713Z,96957.19
2019-05-06T08:56:52.314Z,96956.27
2019-05-06T08:59:18.401Z,96953.17
2019-05-06T09:01:46.369Z,96956.62
2019-05-06T09:04:15.949Z,96954.98
2019-05-06T09:06:42.921Z,96956.69
2019-05-06T09:09:08.399Z,96956.69
2019-05-06T09:11:34.654Z,96955.72
2019-05-06T09:14:03.197Z,96955.72
2019-05-06T09:16:28.533Z,96954.80
2019-05-06T09:18:54.491Z,96948.93
2019-05-06T09:21:22.428Z,96944.84
2019-05-06T09:23:48.258Z,96919.31
2019-05-06T09:26:16.115Z,96919.31
2019-05-06T09:28:43.962Z,96937.91
2019-05-06T09:31:17.938Z,96937.47
2019-05-06T09:33:48.654Z,96927.31
2019-05-06T09:36:14.534Z,96927.31
2019-05-06T09:38:42.448Z,96935.61
2019-05-06T09:41:08.318Z,96938.69
2019-05-06T09:43:34.365Z,96930.68
2019-05-06T09:46:02.344Z,96927.63
2019-05-06T09:48:30.066Z,96923.61
2019-05-06T09:50:56.009Z,96930.19
2019-05-06T09:53:23.943Z,96930.19
2019-05-06T09:56:03.849Z,96919.89
2019-05-06T09:58:32.292Z,96919.89
2019-05-06T10:00:59.541Z,96923.46
2019-05-06T10:03:25.509Z,96923.46
2019-05-06T10:05:53.118Z,96920.78
2019-05-06T10:08:19.266Z,96919.75
2019-05-06T10:10:56.195Z,96919.75
2019-05-06T10:13:13.152Z,96914.20
2019-05-06T10:15:38.992Z,96914.20
2019-05-06T10:18:08.417Z,96924.22
2019-05-06T10:20:42.746Z,96930.31
2019-05-06T10:23:09.183Z,96927.75
2019-05-06T10:25:35.053Z,96928.04
2019-05-06T10:28:03.133Z,96921.75
2019-05-06T10:30:29.177Z,96928.41
2019-05-06T10:32:56.911Z,96928.41
2019-05-06T10:35:25.759Z,96925.62
2019-05-06T10:38:02.988Z,96915.95
2019-05-06T10:40:33.081Z,96918.82
2019-05-06T10:43:11.543Z,96907.88
2019-05-06T10:45:37.421Z,96903.87
2019-05-06T10:48:03.263Z,96903.87
2019-05-06T10:50:31.222Z,96916.94
2019-05-06T10:53:17.221Z,96903.23
2019-05-06T10:55:47.772Z,96901.52
2019-05-06T10:58:13.610Z,96901.52
2019-05-06T11:00:39.557Z,96894.98
2019-05-06T11:03:14.965Z,96895.67
2019-05-06T11:05:43.207Z,96891.75
2019-05-06T11:08:09.145Z,96891.75
2019-05-06T11:10:41.242Z,96897.25
2019-05-06T11:13:03.518Z,96886.13
2019-05-06T11:15:29.510Z,96885.05
2019-05-06T11:17:55.455Z,96885.05
2019-05-06T11:20:23.941Z,96894.44
2019-05-06T11:22:49.102Z,96889.68
2019-05-06T11:25:15.036Z,96889.68
2019-05-06T11:27:42.512Z,96898.64
2019-05-06T11:30:12.708Z,96890.62
2019-05-06T11:32:44.400Z,96904.34
2019-05-06T11:35:18.284Z,96885.77
2019-05-06T11:37:50.492Z,96893.34
2019-05-06T11:40:16.965Z,96893.34
2019-05-06T11:42:43.641Z,96887.45
2019-05-06T11:45:12.102Z,96892.05
2019-05-06T11:47:37.656Z,96889.47
2019-05-06T11:50:06.111Z,96887.67
2019-05-06T11:52:34.443Z,96901.31
2019-05-06T11:55:02.059Z,96898.45
2019-05-06T11:57:27.842Z,96898.45
2019-05-06T11:59:53.896Z,96909.17
2019-05-06T12:02:21.655Z,96909.17
2019-05-06T12:04:47.493Z,96911.41
2019-05-06T12:07:15.593Z,96903.73
2019-05-06T12:09:41.178Z,96906.19
2019-05-06T12:12:07.053Z,96910.33
2019-05-06T12:14:33.187Z,96904.63
2019-05-06T12:16:59.142Z,96912.48
2019-05-06T12:19:25.102Z,96910.26
2019-05-06T12:21:51.064Z,96907.62
2019-05-06T12:24:17.042Z,96917.48
2019-05-06T12:26:43.100Z,96901.11
2019-05-06T12:29:09.069Z,96903.14
2019-05-06T12:31:35.007Z,96909.08
2019-05-06T12:34:02.704Z,96911.19
2019-05-06T12:36:28.800Z,96906.84
2019-05-06T12:39:17.111Z,96907.33
2019-05-06T12:41:44.089Z,96907.44
2019-05-06T12:44:12.916Z,96907.59
2019-05-06T12:46:39.595Z,96908.39
2019-05-06T12:49:05.528Z,96908.39
2019-05-06T12:51:32.250Z,96902.50
2019-05-06T12:53:58.217Z,96910.20
2019-05-06T12:56:24.160Z,96910.20
2019-05-06T12:58:52.393Z,96906.00
2019-05-06T13:01:17.998Z,96914.62
2019-05-06T13:03:43.950Z,96908.63
2019-05-06T13:06:12.744Z,96908.63
2019-05-06T13:08:53.835Z,96918.84
2019-05-06T13:11:05.766Z,96907.34
2019-05-06T13:13:33.215Z,96907.34
2019-05-06T13:15:59.167Z,96909.09
2019-05-06T13:18:25.026Z,96904.41
2019-05-06T13:20:52.233Z,96903.30
2019-05-06T13:23:35.222Z,96905.80
2019-05-06T13:26:02.013Z,96905.80
2019-05-06T13:28:30.551Z,96905.59
2019-05-06T13:31:11.852Z,96905.67
2019-05-06T13:33:27.153Z,96894.86
2019-05-06T13:35:53.099Z,96887.51
2019-05-06T13:38:19.055Z,96899.86
2019-05-06T13:40:53.810Z,96893.77
2019-05-06T13:43:20.373Z,96895.06
2019-05-06T13:45:48.670Z,96895.16
2019-05-06T13:48:23.021Z,96880.49
2019-05-06T13:50:52.574Z,96899.95
2019-05-06T13:53:18.618Z,96898.03
2019-05-06T13:55:44.496Z,96898.03
2019-05-06T13:58:12.467Z,96899.36
2019-05-06T14:00:38.134Z,96891.77
2019-05-06T14:03:04.111Z,96905.30
2019-05-06T14:05:29.986Z,96905.30
2019-05-06T14:07:55.931Z,96903.48
2019-05-06T14:10:22.303Z,96908.56
2019-05-06T14:12:48.256Z,96909.11
2019-05-06T14:15:14.635Z,96907.21
2019-05-06T14:17:42.403Z,96905.87
2019-05-06T14:20:08.731Z,96906.10
2019-05-06T14:22:35.039Z,96901.88
2019-05-06T14:25:22.813Z,96901.88
2019-05-06T14:27:52.589Z,96885.39
2019-05-06T14:30:22.706Z,96885.39
2019-05-06T14:32:48.277Z,96897.80
2019-05-06T14:35:14.254Z,96897.80
2019-05-06T14:37:42.153Z,96903.29
2019-05-06T14:40:11.869Z,96898.78
2019-05-06T14:42:39.554Z,96898.78
2019-05-06T14:45:05.640Z,96877.95
2019-05-06T14:47:33.401Z,96900.53
2019-05-06T14:49:59.778Z,96895.30
2019-05-06T14:52:25.635Z,96898.75
2019-05-06T14:54:53.631Z,96900.73
2019-05-06T14:57:19.824Z,96901.67
2019-05-06T14:59:45.653Z,96896.92
2019-05-06T15:02:13.252Z,96894.92
2019-05-06T15:04:39.268Z,96890.81
2019-05-06T15:07:05.294Z,96890.81
2019-05-06T15:09:32.947Z,96893.20
2019-05-06T15:11:59.007Z,96894.85
2019-05-06T15:14:24.855Z,96894.85
2019-05-06T15:16:52.791Z,96895.88
2019-05-06T15:19:18.588Z,96898.32
2019-05-06T15:21:44.797Z,96898.32
2019-05-06T15:24:13.492Z,96902.09
2019-05-06T15:26:38.575Z,96905.86
2019-05-06T15:29:04.593Z,96905.86
2019-05-06T15:31:49.060Z,96893.83
2019-05-06T15:34:16.894Z,96904.70
2019-05-06T15:36:53.521Z,96904.70
2019-05-06T15:39:19.431Z,96903.47
2019-05-06T15:41:45.314Z,96903.47
2019-05-06T15:44:12.583Z,96914.15
2019-05-06T15:46:38.615Z,96914.82
2019-05-06T15:49:04.494Z,96913.80
2019-05-06T15:51:33.206Z,96910.66
2019-05-06T15:53:59.044Z,96917.42
2019-05-06T15:56:24.874Z,96908.40
2019-05-06T15:58:50.721Z,96915.47
2019-05-06T16:01:16.543Z,96919.11
2019-05-06T16:03:43.341Z,96920.84
2019-05-06T16:06:09.236Z,96911.45
2019-05-06T16:08:35.166Z,96911.45
2019-05-06T16:11:02.921Z,96913.77
2019-05-06T16:13:28.785Z,96915.21
2019-05-06T16:15:54.635Z,96915.21
2019-05-06T16:18:23.216Z,96912.52
2019-05-06T16:20:48.760Z,96912.53
2019-05-06T16:23:32.759Z,96917.10
2019-05-06T16:25:59.049Z,96917.19
2019-05-06T16:28:24.899Z,96917.19
2019-05-06T16:30:53.195Z,96910.75
2019-05-06T16:33:19.012Z,96913.05
2019-05-06T16:35:45.093Z,96913.44
2019-05-06T16:38:13.005Z,96913.44
2019-05-06T16:40:38.810Z,96920.03
2019-05-06T16:43:04.764Z,96920.03
2019-05-06T16:45:30.596Z,96923.55
2019-05-06T16:47:56.458Z,96916.17
2019-05-06T16:50:22.990Z,96923.38
2019-05-06T16:52:48.858Z,96919.35
2019-05-06T16:55:17.727Z,96919.35
2019-05-06T16:57:45.494Z,96923.85
2019-05-06T17:00:13.578Z,96927.56
2019-05-06T17:02:56.871Z,96918.10
2019-05-06T17:05:37.844Z,96927.47
2019-05-06T17:08:03.732Z,96921.28
2019-05-06T17:10:29.705Z,96921.28
2019-05-06T17:12:55.563Z,96926.79
2019-05-06T17:15:23.016Z,96922.49
2019-05-06T17:17:48.974Z,96927.98
2019-05-06T17:20:15.436Z,96925.84
2019-05-06T17:22:42.343Z,96923.13
2019-05-06T17:25:08.502Z,96934.66
2019-05-06T17:27:35.862Z,96917.69
2019-05-06T17:30:22.465Z,96927.87
2019-05-06T17:32:50.084Z,96929.06
2019-05-06T17:35:16.150Z,96931.27
2019-05-06T17:37:49.996Z,96931.27
2019-05-06T17:40:17.957Z,96927.80
2019-05-06T17:42:43.897Z,96929.47
2019-05-06T17:45:28.032Z,96934.99
2019-05-06T17:47:55.824Z,96935.27
2019-05-06T17:50:22.546Z,96920.08
2019-05-06T17:52:48.553Z,96932.09
2019-05-06T17:55:14.439Z,96932.09
2019-05-06T17:57:42.153Z,96933.69
2019-05-06T18:00:08.230Z,96939.22
2019-05-06T18:02:34.080Z,96946.73
2019-05-06T18:04:59.917Z,96946.73
2019-05-06T18:07:25.775Z,96945.03
2019-05-06T18:09:52.294Z,96955.84
2019-05-06T18:12:18.340Z,96949.02
2019-05-06T18:14:44.285Z,96947.45
2019-05-06T18:17:12.328Z,96954.44
2019-05-06T18:19:37.894Z,96949.31
2019-05-06T18:22:03.744Z,96953.91
2019-05-06T18:24:29.613Z,96958.47
2019-05-06T18:26:55.442Z,96961.41
2019-05-06T18:29:22.172Z,96946.08
2019-05-06T18:31:48.156Z,96962.94
2019-05-06T18:34:14.122Z,96957.56
2019-05-06T18:36:40.000Z,96963.81
2019-05-06T18:39:05.854Z,96965.59
2019-05-06T18:41:32.908Z,96968.84
2019-05-06T18:43:58.951Z,96969.27
2019-05-06T18:46:24.947Z,96966.38
2019-05-06T18:48:52.419Z,96980.64
2019-05-06T18:51:18.610Z,96982.55
2019-05-06T18:53:44.450Z,96983.22
2019-05-06T18:56:12.544Z,96985.77
2019-05-06T18:58:38.167Z,96982.41
2019-05-06T19:01:04.151Z,96996.11
2019-05-06T19:03:32.414Z,96996.11
2019-05-06T19:05:58.322Z,96996.91
2019-05-06T19:08:42.523Z,97004.02
2019-05-06T19:11:11.861Z,96994.56
2019-05-06T19:13:38.073Z,97000.52
2019-05-06T19:16:03.908Z,97000.52
2019-05-06T19:18:29.832Z,96999.39
2019-05-06T19:20:55.653Z,97006.54
2019-05-06T19:23:22.499Z,97007.03
2019-05-06T19:25:48.406Z,97011.16
2019-05-06T19:28:14.435Z,97011.16
2019-05-06T19:30:41.004Z,97016.33
2019-05-06T19:33:07.234Z,97014.86
2019-05-06T19:35:36.810Z,97017.17
2019-05-06T19:38:02.991Z,97017.17
2019-05-06T19:40:28.613Z,97010.95
2019-05-06T19:42:54.465Z,97017.42
2019-05-06T19:45:22.319Z,97016.25
2019-05-06T19:47:48.079Z,97017.95
2019-05-06T19:50:14.123Z,97010.27
2019-05-06T19:52:42.043Z,97018.24
2019-05-06T19:55:07.838Z,97022.35
2019-05-06T19:57:33.816Z,97022.35
2019-05-06T19:59:59.656Z,97022.35
2019-05-06T20:02:25.958Z,97017.91
2019-05-06T20:04:56.527Z,97021.31
2019-05-06T20:07:39.172Z,97023.94
2019-05-06T20:10:07.109Z,97023.94
2019-05-06T20:12:34.902Z,97021.69
2019-05-06T20:15:19.276Z,97022.06
2019-05-06T20:17:45.129Z,97022.06
2019-05-06T20:20:12.453Z,97010.98
2019-05-06T20:22:38.366Z,97021.87
2019-05-06T20:25:05.111Z,97016.73
2019-05-06T20:27:32.421Z,97017.67
2019-05-06T20:29:58.358Z,97023.22
2019-05-06T20:32:24.260Z,97023.22
2019-05-06T20:34:50.267Z,97021.37
2019-05-06T20:37:16.070Z,97021.16
2019-05-06T20:39:43.344Z,97023.38
2019-05-06T20:42:09.353Z,97023.91
2019-05-06T20:44:35.302Z,97020.45
2019-05-06T20:47:03.096Z,97023.13
2019-05-06T20:49:28.994Z,97013.98
2019-05-06T20:51:54.842Z,97013.98
2019-05-06T20:54:20.688Z,97014.62
2019-05-06T20:56:46.529Z,97016.03
2019-05-06T20:59:12.370Z,97012.31
2019-05-06T21:01:38.219Z,97013.35
2019-05-06T21:04:04.059Z,97005.95
2019-05-06T21:06:32.029Z,97010.41
2019-05-06T21:08:57.682Z,97010.13
2019-05-06T21:11:28.949Z,97008.98
2019-05-06T21:13:51.286Z,97007.34
2019-05-06T21:16:17.145Z,97000.86
2019-05-06T21:18:42.991Z,97000.86
2019-05-06T21:21:08.849Z,97001.27
2019-05-06T21:23:34.694Z,97004.70
2019-05-06T21:26:00.575Z,97006.44
2019-05-06T21:28:26.993Z,97012.76
2019-05-06T21:30:52.867Z,97011.16
2019-05-06T21:33:18.695Z,97008.70
2019-05-06T21:35:44.529Z,97013.77
2019-05-06T21:38:12.153Z,97007.50
2019-05-06T21:40:38.118Z,97004.84
2019-05-06T21:43:03.945Z,97004.84
2019-05-06T21:45:29.820Z,97001.44
2019-05-06T21:47:55.683Z,97005.23
2019-05-06T21:50:22.782Z,97005.80
2019-05-06T21:52:48.771Z,97004.20
2019-05-06T21:55:16.530Z,97003.50
2019-05-06T21:57:42.527Z,97000.20
2019-05-06T22:00:12.650Z,96999.99
2019-05-06T22:02:38.462Z,96995.73
2019-05-06T22:05:06.918Z,97004.06
2019-05-06T22:07:35.608Z,96997.80
2019-05-06T22:10:03.385Z,96998.94
2019-05-06T22:12:29.224Z,97001.87
2019-05-06T22:14:55.064Z,96996.06
2019-05-06T22:17:22.589Z,97000.48
2019-05-06T22:19:48.481Z,97001.05
2019-05-06T22:22:16.197Z,96995.39
2019-05-06T22:24:52.329Z,96994.63
2019-05-06T22:27:17.104Z,96993.91
2019-05-06T22:29:42.941Z,96990.73
2019-05-06T22:32:08.877Z,96990.28
2019-05-06T22:34:34.716Z,96989.45
2019-05-06T22:37:03.163Z,96987.46
2019-05-06T22:39:28.337Z,96984.17
2019-05-06T22:41:54.187Z,96981.11
2019-05-06T22:44:20.034Z,96986.84
2019-05-06T22:46:45.887Z,96990.25
2019-05-06T22:49:13.312Z,96983.42
2019-05-06T22:51:39.291Z,96982.61
2019-05-06T22:54:05.104Z,96986.25
2019-05-06T22:56:32.534Z,96983.88
2019-05-06T22:58:58.497Z,96986.27
2019-05-06T23:01:26.240Z,96979.70
2019-05-06T23:03:52.592Z,96978.41
2019-05-06T23:06:18.442Z,96979.44
2019-05-06T23:08:44.368Z,96983.13
2019-05-06T23:11:10.272Z,96975.58
2019-05-06T23:13:36.130Z,96974.52
2019-05-06T23:16:02.134Z,96983.67
2019-05-06T23:18:28.022Z,96988.61
2019-05-06T23:20:53.861Z,96984.42
2019-05-06T23:23:22.119Z,96990.47
2019-05-06T23:25:49.349Z,96986.03
2019-05-06T23:28:15.192Z,96977.45
2019-05-06T23:30:42.866Z,96982.42
2019-05-06T23:33:08.786Z,96983.19
2019-05-06T23:35:34.630Z,96985.01
2019-05-06T23:38:37.716Z,96979.02
2019-05-06T23:41:42.326Z,96985.55
2019-05-06T23:44:46.306Z,96981.88
2019-05-06T23:47:49.370Z,96983.45
2019-05-06T23:50:52.494Z,96980.02
2019-05-06T23:53:55.424Z,96981.22
2019-05-06T23:56:43.924Z,96981.48
2019-05-06T23:59:12.569Z,96977.08
